Time;durP1;ratioP1;P1;durP2;ratioP2;P2;SDS_P1;SDS_P2;PMS_P1;PMS_P2;Temp;Humidity;BMP_temperature;BMP_pressure;BME280_temperature;BME280_humidity;BME280_pressure;Samples;Min_cycle;Max_cycle;Signal;HPM_P1;HPM_P2
2021/11/15 00:01:29;;;;;;;4.22;3.83;;;;;;;;;;5035561;28;20286;-49
2021/11/15 00:03:55;;;;;;;3.92;3.40;;;;;;;;;;5036943;28;20286;-48
2021/11/15 00:06:21;;;;;;;3.90;3.50;;;;;;;;;;5037148;28;20187;-49
2021/11/15 00:08:47;;;;;;;4.57;3.55;;;;;;;;;;5037291;28;20262;-48
2021/11/15 00:11:13;;;;;;;4.05;3.65;;;;;;;;;;5036761;28;20186;-49
2021/11/15 00:13:39;;;;;;;3.65;3.35;;;;;;;;;;5036580;28;20183;-48
2021/11/15 00:16:05;;;;;;;3.63;3.33;;;;;;;;;;5036009;28;20207;-48
2021/11/15 00:18:31;;;;;;;3.85;3.45;;;;;;;;;;5037332;28;20421;-48
2021/11/15 00:20:57;;;;;;;3.88;3.47;;;;;;;;;;5037085;28;20214;-48
2021/11/15 00:23:24;;;;;;;3.83;3.35;;;;;;;;;;5036482;28;20257;-49
2021/11/15 00:25:50;;;;;;;3.80;3.42;;;;;;;;;;5036743;28;20231;-49
2021/11/15 00:28:16;;;;;;;3.67;3.38;;;;;;;;;;5037200;28;20187;-49
2021/11/15 00:30:42;;;;;;;3.40;3.10;;;;;;;;;;5036734;28;20195;-48
2021/11/15 00:33:08;;;;;;;3.70;3.35;;;;;;;;;;5035872;28;20176;-50
2021/11/15 00:35:34;;;;;;;4.22;3.83;;;;;;;;;;5036618;28;20551;-48
2021/11/15 00:38:00;;;;;;;3.58;3.28;;;;;;;;;;5041118;28;20186;-50
2021/11/15 00:40:26;;;;;;;3.60;3.30;;;;;;;;;;5054202;28;20180;-50
2021/11/15 00:42:53;;;;;;;4.45;3.00;;;;;;;;;;5036122;28;20235;-48
2021/11/15 00:45:19;;;;;;;3.40;3.10;;;;;;;;;;5036535;28;20176;-50
2021/11/15 00:47:45;;;;;;;4.00;3.60;;;;;;;;;;5035738;28;20187;-49
2021/11/15 00:50:16;;;;;;;5.03;3.80;;;;;;;;;;5035169;28;20191;-49
2021/11/15 00:52:42;;;;;;;3.72;3.30;;;;;;;;;;5036393;28;20180;-48
2021/11/15 00:55:08;;;;;;;3.78;3.47;;;;;;;;;;5035811;28;20539;-49
2021/11/15 00:57:34;;;;;;;3.80;3.40;;;;;;;;;;5036261;28;20183;-49
2021/11/15 01:00:00;;;;;;;3.58;3.28;;;;;;;;;;5036252;28;20180;-48
2021/11/15 01:02:27;;;;;;;3.53;3.13;;;;;;;;;;5035958;28;20218;-49
2021/11/15 01:04:53;;;;;;;3.30;3.00;;;;;;;;;;5030681;28;20450;-50
2021/11/15 01:07:19;;;;;;;3.90;2.92;;;;;;;;;;5018911;28;20203;-48
2021/11/15 01:09:45;;;;;;;3.55;3.17;;;;;;;;;;5035718;28;20559;-50
2021/11/15 01:12:11;;;;;;;3.40;3.10;;;;;;;;;;5035569;28;20198;-49
2021/11/15 01:14:37;;;;;;;4.15;3.50;;;;;;;;;;5035376;28;20192;-49
2021/11/15 01:17:03;;;;;;;3.85;3.45;;;;;;;;;;5035815;28;20187;-49
2021/11/15 01:19:30;;;;;;;3.53;3.20;;;;;;;;;;5036145;28;20681;-49
2021/11/15 01:21:56;;;;;;;3.28;2.97;;;;;;;;;;5034401;28;20184;-50
2021/11/15 01:24:22;;;;;;;3.40;3.10;;;;;;;;;;5032833;28;20735;-48
2021/11/15 01:26:47;;;;;;;3.53;3.22;;;;;;;;;;5035074;28;20308;-49
2021/11/15 01:29:13;;;;;;;3.72;3.30;;;;;;;;;;5035970;28;20188;-48
2021/11/15 01:31:40;;;;;;;4.10;3.70;;;;;;;;;;5035523;28;20183;-48
2021/11/15 01:34:06;;;;;;;3.35;3.05;;;;;;;;;;5035126;28;20234;-50
2021/11/15 01:36:32;;;;;;;3.40;3.05;;;;;;;;;;5035694;28;20180;-48
2021/11/15 01:38:58;;;;;;;3.50;3.20;;;;;;;;;;5034343;28;20179;-48
2021/11/15 01:41:24;;;;;;;3.47;3.17;;;;;;;;;;5029234;28;20205;-49
2021/11/15 01:43:51;;;;;;;3.60;3.30;;;;;;;;;;5034914;28;20204;-49
2021/11/15 01:46:17;;;;;;;3.60;3.30;;;;;;;;;;5035075;28;20187;-49
2021/11/15 01:48:44;;;;;;;4.13;3.40;;;;;;;;;;5035583;28;20175;-50
2021/11/15 01:51:10;;;;;;;3.67;3.38;;;;;;;;;;5035626;28;20172;-48
2021/11/15 01:53:36;;;;;;;3.60;3.30;;;;;;;;;;5034572;28;20202;-49
2021/11/15 01:56:02;;;;;;;3.60;3.30;;;;;;;;;;5034548;28;20177;-48
2021/11/15 01:58:28;;;;;;;3.30;3.00;;;;;;;;;;5035166;28;20180;-49
2021/11/15 02:00:57;;;;;;;3.72;3.35;;;;;;;;;;5035108;28;20222;-49
2021/11/15 02:03:23;;;;;;;2.92;2.65;;;;;;;;;;5034686;28;20207;-49
2021/11/15 02:05:49;;;;;;;3.53;3.22;;;;;;;;;;5034317;28;20218;-49
2021/11/15 02:08:16;;;;;;;3.20;2.90;;;;;;;;;;5035571;28;20208;-50
2021/11/15 02:10:42;;;;;;;3.10;2.80;;;;;;;;;;5035217;28;20488;-49
2021/11/15 02:13:08;;;;;;;4.05;3.40;;;;;;;;;;5028337;28;20192;-50
2021/11/15 02:15:35;;;;;;;3.78;3.47;;;;;;;;;;5014999;28;20176;-48
2021/11/15 02:18:01;;;;;;;3.50;3.20;;;;;;;;;;5032508;28;20176;-50
2021/11/15 02:20:41;;;;;;;3.78;3.22;;;;;;;;;;5034176;28;20199;-49
2021/11/15 02:23:07;;;;;;;3.25;2.92;;;;;;;;;;5034332;28;20239;-48
2021/11/15 02:25:33;;;;;;;3.25;2.90;;;;;;;;;;5034362;28;20212;-50
2021/11/15 02:27:59;;;;;;;3.50;3.20;;;;;;;;;;5033841;28;20176;-49
2021/11/15 02:30:26;;;;;;;3.42;3.13;;;;;;;;;;5033173;28;20182;-48
2021/11/15 02:32:52;;;;;;;3.00;2.75;;;;;;;;;;5034039;28;20186;-50
2021/11/15 02:35:19;;;;;;;3.33;3.03;;;;;;;;;;5029103;28;20199;-48
2021/11/15 02:37:46;;;;;;;4.00;3.33;;;;;;;;;;5034705;28;20247;-48
2021/11/15 02:40:12;;;;;;;2.97;2.55;;;;;;;;;;5034667;28;20240;-49
2021/11/15 02:42:39;;;;;;;3.75;3.45;;;;;;;;;;5033954;28;20179;-49
2021/11/15 02:45:07;;;;;;;3.50;3.20;;;;;;;;;;5033985;28;20172;-48
2021/11/15 02:47:34;;;;;;;3.67;3.30;;;;;;;;;;5027219;28;20198;-49
2021/11/15 02:50:00;;;;;;;3.30;3.00;;;;;;;;;;5034550;28;20171;-48
2021/11/15 02:52:27;;;;;;;3.25;2.95;;;;;;;;;;5033916;28;20180;-48
2021/11/15 02:54:57;;;;;;;3.47;3.17;;;;;;;;;;5033527;28;20483;-49
2021/11/15 02:57:23;;;;;;;3.30;3.00;;;;;;;;;;5033699;28;20547;-49
2021/11/15 02:59:49;;;;;;;3.58;3.20;;;;;;;;;;5033994;28;20911;-49
2021/11/15 03:02:15;;;;;;;3.38;3.08;;;;;;;;;;5033813;28;20279;-49
2021/11/15 03:04:44;;;;;;;2.75;2.55;;;;;;;;;;5033144;28;20234;-48
2021/11/15 03:07:10;;;;;;;3.08;2.88;;;;;;;;;;5034176;28;20175;-49
2021/11/15 03:09:38;;;;;;;3.25;2.95;;;;;;;;;;5033435;28;20183;-49
2021/11/15 03:12:05;;;;;;;3.30;3.00;;;;;;;;;;5034114;28;20180;-48
2021/11/15 03:14:31;;;;;;;3.30;3.00;;;;;;;;;;5032307;28;20754;-49
2021/11/15 03:16:57;;;;;;;3.35;3.05;;;;;;;;;;5022912;28;20540;-49
2021/11/15 03:19:23;;;;;;;3.45;3.15;;;;;;;;;;5033819;28;20258;-49
2021/11/15 03:21:49;;;;;;;3.35;3.05;;;;;;;;;;5033397;28;20528;-49
2021/11/15 03:24:15;;;;;;;3.30;3.00;;;;;;;;;;5033343;28;20195;-49
2021/11/15 03:26:41;;;;;;;3.58;3.25;;;;;;;;;;5033821;28;20266;-49
2021/11/15 03:29:07;;;;;;;3.85;2.88;;;;;;;;;;5032323;28;20188;-48
2021/11/15 03:31:34;;;;;;;3.80;3.28;;;;;;;;;;5033268;28;20171;-50
2021/11/15 03:34:20;;;;;;;3.30;3.00;;;;;;;;;;5033724;28;20167;-49
2021/11/15 03:36:46;;;;;;;2.85;2.65;;;;;;;;;;5033583;28;20184;-49
2021/11/15 03:39:13;;;;;;;3.50;3.17;;;;;;;;;;5033794;28;20474;-48
2021/11/15 03:41:40;;;;;;;3.50;3.20;;;;;;;;;;5033523;28;20226;-50
2021/11/15 03:44:07;;;;;;;3.53;3.22;;;;;;;;;;5027572;28;20204;-48
2021/11/15 03:46:33;;;;;;;3.60;3.30;;;;;;;;;;5033270;28;20597;-50
2021/11/15 03:49:00;;;;;;;3.30;3.00;;;;;;;;;;5033541;28;20206;-48
2021/11/15 03:51:26;;;;;;;3.33;2.90;;;;;;;;;;5032786;28;20184;-50
2021/11/15 03:53:53;;;;;;;3.17;2.88;;;;;;;;;;5033435;28;20187;-49
2021/11/15 03:56:23;;;;;;;3.38;3.08;;;;;;;;;;5036661;28;20239;-48
2021/11/15 03:58:49;;;;;;;3.67;3.38;;;;;;;;;;5037190;28;20195;-49
2021/11/15 04:01:15;;;;;;;3.33;3.03;;;;;;;;;;5035495;28;20203;-48
2021/11/15 04:03:42;;;;;;;3.15;2.85;;;;;;;;;;5032845;28;20211;-49
2021/11/15 04:06:21;;;;;;;3.47;3.17;;;;;;;;;;5032885;28;20175;-49
2021/11/15 04:08:47;;;;;;;3.40;3.10;;;;;;;;;;5033348;28;20167;-49
2021/11/15 04:11:13;;;;;;;3.10;2.80;;;;;;;;;;5032624;28;20470;-48
2021/11/15 04:13:42;;;;;;;3.15;2.85;;;;;;;;;;5032874;28;20183;-49
2021/11/15 04:16:10;;;;;;;3.33;3.03;;;;;;;;;;5033247;28;20188;-48
2021/11/15 04:18:37;;;;;;;3.10;2.90;;;;;;;;;;5032658;28;20183;-48
2021/11/15 04:21:06;;;;;;;2.70;2.50;;;;;;;;;;5033012;28;20214;-49
2021/11/15 04:23:32;;;;;;;3.10;2.90;;;;;;;;;;5032183;28;20292;-48
2021/11/15 04:25:58;;;;;;;3.53;3.22;;;;;;;;;;5032304;28;20180;-48
2021/11/15 04:28:25;;;;;;;3.50;3.15;;;;;;;;;;5033058;28;20485;-48
2021/11/15 04:30:51;;;;;;;3.30;3.00;;;;;;;;;;5032792;28;20186;-50
2021/11/15 04:33:17;;;;;;;3.90;3.50;;;;;;;;;;5031542;28;20199;-49
2021/11/15 04:35:43;;;;;;;3.33;3.03;;;;;;;;;;5032968;28;20659;-49
2021/11/15 04:38:09;;;;;;;3.40;3.10;;;;;;;;;;5032899;28;20184;-50
2021/11/15 04:40:36;;;;;;;3.42;2.92;;;;;;;;;;5030550;28;20188;-49
2021/11/15 04:43:02;;;;;;;3.10;2.80;;;;;;;;;;5034300;28;20227;-48
2021/11/15 04:45:28;;;;;;;3.15;2.85;;;;;;;;;;5036298;28;20258;-49
2021/11/15 04:47:54;;;;;;;3.35;3.05;;;;;;;;;;5036156;28;20254;-50
2021/11/15 04:50:20;;;;;;;3.05;2.75;;;;;;;;;;5036233;28;20539;-50
2021/11/15 04:52:46;;;;;;;3.28;2.97;;;;;;;;;;5036238;28;20190;-49
2021/11/15 04:55:13;;;;;;;3.20;2.90;;;;;;;;;;5035849;28;20183;-48
2021/11/15 04:57:40;;;;;;;3.30;3.00;;;;;;;;;;5036425;28;20184;-48
2021/11/15 05:00:07;;;;;;;3.33;3.03;;;;;;;;;;5036301;28;20180;-48
2021/11/15 05:02:33;;;;;;;3.40;3.10;;;;;;;;;;5035895;28;20195;-48
2021/11/15 05:04:59;;;;;;;2.90;2.55;;;;;;;;;;5036097;28;20267;-49
2021/11/15 05:07:25;;;;;;;3.30;3.00;;;;;;;;;;5036139;28;20784;-49
2021/11/15 05:09:51;;;;;;;3.45;3.13;;;;;;;;;;5031857;28;20180;-49
2021/11/15 05:12:17;;;;;;;4.57;2.92;;;;;;;;;;5036454;28;20271;-49
2021/11/15 05:14:43;;;;;;;3.22;2.75;;;;;;;;;;5035223;28;20187;-49
2021/11/15 05:17:09;;;;;;;3.15;2.85;;;;;;;;;;5035570;28;20282;-49
2021/11/15 05:19:35;;;;;;;3.33;3.03;;;;;;;;;;5035590;28;20651;-49
2021/11/15 05:22:01;;;;;;;3.70;3.20;;;;;;;;;;5035403;28;20230;-48
2021/11/15 05:24:27;;;;;;;4.57;3.63;;;;;;;;;;5034772;28;20286;-48
2021/11/15 05:26:53;;;;;;;4.10;3.38;;;;;;;;;;5035700;28;20171;-49
2021/11/15 05:29:19;;;;;;;5.38;3.03;;;;;;;;;;5034972;28;20432;-49
2021/11/15 05:31:45;;;;;;;5.43;3.33;;;;;;;;;;5035515;28;20262;-49
2021/11/15 05:34:11;;;;;;;4.28;3.78;;;;;;;;;;5035525;28;20188;-48
2021/11/15 05:36:37;;;;;;;6.18;3.55;;;;;;;;;;5035838;28;20253;-49
2021/11/15 05:39:04;;;;;;;4.63;3.22;;;;;;;;;;5034935;28;20188;-50
2021/11/15 05:41:31;;;;;;;5.40;3.53;;;;;;;;;;5035341;28;20176;-48
2021/11/15 05:43:57;;;;;;;4.22;2.78;;;;;;;;;;5035120;28;20441;-48
2021/11/15 05:46:23;;;;;;;4.30;3.20;;;;;;;;;;5034945;28;20556;-48
2021/11/15 05:48:49;;;;;;;4.32;3.13;;;;;;;;;;5035360;28;20184;-48
2021/11/15 05:51:15;;;;;;;5.13;3.50;;;;;;;;;;5034020;28;20176;-50
2021/11/15 05:53:45;;;;;;;3.85;3.28;;;;;;;;;;5014642;28;20173;-50
2021/11/15 05:56:12;;;;;;;4.78;3.47;;;;;;;;;;5017738;28;20271;-48
2021/11/15 05:58:38;;;;;;;5.13;3.13;;;;;;;;;;5035292;28;20188;-48
2021/11/15 06:01:04;;;;;;;5.97;3.10;;;;;;;;;;5033977;28;20270;-48
2021/11/15 06:03:30;;;;;;;5.93;3.60;;;;;;;;;;5032486;28;20282;-49
2021/11/15 06:05:56;;;;;;;5.90;3.50;;;;;;;;;;5032320;28;20366;-48
2021/11/15 06:08:22;;;;;;;5.30;3.10;;;;;;;;;;5033969;28;20509;-49
2021/11/15 06:10:48;;;;;;;4.40;3.53;;;;;;;;;;5033821;28;20332;-49
2021/11/15 06:13:15;;;;;;;5.68;3.38;;;;;;;;;;5034389;28;20188;-48
2021/11/15 06:15:42;;;;;;;4.93;3.78;;;;;;;;;;5034379;28;20537;-48
2021/11/15 06:18:08;;;;;;;5.22;3.50;;;;;;;;;;5035027;28;20188;-50
2021/11/15 06:20:34;;;;;;;5.75;3.50;;;;;;;;;;5033881;28;20183;-48
2021/11/15 06:23:00;;;;;;;5.72;3.30;;;;;;;;;;5033864;28;20200;-49
2021/11/15 06:25:26;;;;;;;5.22;3.45;;;;;;;;;;5034586;28;20639;-50
2021/11/15 06:27:52;;;;;;;5.13;3.53;;;;;;;;;;5034389;28;20210;-48
2021/11/15 06:30:19;;;;;;;5.78;4.10;;;;;;;;;;5034787;28;20564;-49
2021/11/15 06:32:45;;;;;;;4.45;3.53;;;;;;;;;;5032048;28;20184;-50
2021/11/15 06:35:12;;;;;;;4.40;3.10;;;;;;;;;;5014721;28;20179;-49
2021/11/15 06:37:38;;;;;;;4.07;3.08;;;;;;;;;;5028735;28;20558;-48
2021/11/15 06:40:06;;;;;;;5.50;3.35;;;;;;;;;;5034466;28;20490;-48
2021/11/15 06:42:32;;;;;;;6.00;3.88;;;;;;;;;;5035006;28;20534;-50
2021/11/15 06:44:58;;;;;;;5.70;3.45;;;;;;;;;;5034041;28;20199;-49
2021/11/15 06:47:24;;;;;;;6.70;3.90;;;;;;;;;;5033364;28;20176;-48
2021/11/15 06:49:51;;;;;;;5.35;3.40;;;;;;;;;;5034422;28;20222;-50
2021/11/15 06:52:19;;;;;;;5.35;3.83;;;;;;;;;;5033976;28;20263;-49
2021/11/15 06:54:45;;;;;;;4.53;3.20;;;;;;;;;;5033638;28;20258;-50
2021/11/15 06:57:11;;;;;;;5.43;3.90;;;;;;;;;;5033627;28;20278;-49
2021/11/15 06:59:37;;;;;;;5.07;3.42;;;;;;;;;;5034326;28;20259;-48
2021/11/15 07:02:04;;;;;;;4.30;3.58;;;;;;;;;;5033546;28;20179;-49
2021/11/15 07:04:29;;;;;;;5.93;3.78;;;;;;;;;;5033479;28;20214;-49
2021/11/15 07:06:55;;;;;;;5.57;3.65;;;;;;;;;;5033736;28;20183;-49
2021/11/15 07:09:22;;;;;;;6.18;3.60;;;;;;;;;;5034660;28;20184;-48
2021/11/15 07:11:50;;;;;;;5.95;4.03;;;;;;;;;;5033915;28;20729;-49
2021/11/15 07:14:16;;;;;;;5.32;3.88;;;;;;;;;;5033639;28;20579;-48
2021/11/15 07:16:42;;;;;;;5.53;3.83;;;;;;;;;;5027330;28;20195;-48
2021/11/15 07:19:08;;;;;;;7.85;4.00;;;;;;;;;;5033901;28;20176;-49
2021/11/15 07:21:34;;;;;;;5.28;3.95;;;;;;;;;;5033646;28;20206;-50
2021/11/15 07:24:00;;;;;;;4.32;3.60;;;;;;;;;;5033197;28;20195;-49
2021/11/15 07:26:26;;;;;;;5.70;3.92;;;;;;;;;;5033510;28;20180;-49
2021/11/15 07:28:52;;;;;;;4.30;3.80;;;;;;;;;;5033756;28;20195;-48
2021/11/15 07:31:19;;;;;;;5.13;3.95;;;;;;;;;;5020714;28;20269;-49
2021/11/15 07:33:45;;;;;;;6.32;3.80;;;;;;;;;;5033052;28;20183;-49
2021/11/15 07:36:11;;;;;;;6.32;4.05;;;;;;;;;;5033551;28;20238;-49
2021/11/15 07:38:38;;;;;;;5.18;4.07;;;;;;;;;;5033470;28;20559;-48
2021/11/15 07:41:04;;;;;;;4.38;3.97;;;;;;;;;;5033333;28;20238;-48
2021/11/15 07:43:30;;;;;;;6.68;4.28;;;;;;;;;;5033130;28;20478;-50
2021/11/15 07:45:56;;;;;;;7.93;3.97;;;;;;;;;;5024238;28;20282;-48
2021/11/15 07:48:22;;;;;;;6.13;4.05;;;;;;;;;;5031278;28;20179;-50
2021/11/15 07:50:48;;;;;;;6.88;3.92;;;;;;;;;;5025295;28;20185;-50
2021/11/15 07:53:14;;;;;;;6.00;4.45;;;;;;;;;;5011818;28;20200;-49
2021/11/15 07:55:42;;;;;;;4.53;3.58;;;;;;;;;;5011960;28;20176;-48
2021/11/15 07:58:10;;;;;;;5.38;4.38;;;;;;;;;;5016167;28;20204;-50
2021/11/15 08:00:38;;;;;;;5.60;4.15;;;;;;;;;;5032276;28;20175;-49
2021/11/15 08:03:04;;;;;;;6.20;4.30;;;;;;;;;;5031327;28;20199;-49
2021/11/15 08:05:30;;;;;;;4.85;4.05;;;;;;;;;;5031102;28;20599;-49
2021/11/15 08:07:56;;;;;;;5.20;4.05;;;;;;;;;;5033661;28;20201;-49
2021/11/15 08:10:22;;;;;;;6.00;4.13;;;;;;;;;;5033733;28;20176;-50
2021/11/15 08:12:50;;;;;;;5.22;4.07;;;;;;;;;;5025374;28;20181;-49
2021/11/15 08:15:17;;;;;;;5.35;4.13;;;;;;;;;;5013984;28;20223;-48
2021/11/15 08:17:45;;;;;;;6.13;4.32;;;;;;;;;;5014770;28;20551;-50
2021/11/15 08:20:13;;;;;;;5.22;4.38;;;;;;;;;;5017669;28;20169;-49
2021/11/15 08:22:40;;;;;;;5.45;4.28;;;;;;;;;;5017684;28;20195;-50
2021/11/15 08:25:12;;;;;;;6.32;4.72;;;;;;;;;;5016967;28;20416;-49
2021/11/15 08:27:38;;;;;;;5.55;4.30;;;;;;;;;;5030417;28;20195;-49
2021/11/15 08:30:04;;;;;;;6.32;4.28;;;;;;;;;;5037381;28;20164;-48
2021/11/15 08:32:30;;;;;;;6.10;4.40;;;;;;;;;;5037008;28;20222;-49
2021/11/15 08:34:58;;;;;;;6.47;4.72;;;;;;;;;;5036512;28;20821;-50
2021/11/15 08:37:24;;;;;;;5.47;4.20;;;;;;;;;;5037124;28;20164;-48
2021/11/15 08:39:50;;;;;;;7.00;4.50;;;;;;;;;;5037185;28;20183;-48
2021/11/15 08:42:17;;;;;;;6.35;4.78;;;;;;;;;;5036279;28;20182;-48
2021/11/15 08:44:53;;;;;;;5.28;4.13;;;;;;;;;;5034636;28;20200;-50
2021/11/15 08:47:19;;;;;;;6.13;4.30;;;;;;;;;;5031735;28;20207;-49
2021/11/15 08:49:45;;;;;;;5.75;4.55;;;;;;;;;;5036962;28;20184;-50
2021/11/15 08:52:11;;;;;;;6.47;4.50;;;;;;;;;;5036743;28;20237;-48
2021/11/15 08:54:38;;;;;;;6.20;4.32;;;;;;;;;;5036216;28;20186;-49
2021/11/15 08:57:06;;;;;;;5.40;4.30;;;;;;;;;;5036764;28;20168;-49
2021/11/15 08:59:32;;;;;;;6.45;4.93;;;;;;;;;;5032484;28;20251;-50
2021/11/15 09:01:59;;;;;;;7.57;4.88;;;;;;;;;;5016673;28;20674;-50
2021/11/15 09:04:25;;;;;;;4.30;3.88;;;;;;;;;;5015926;28;20200;-49
2021/11/15 09:06:52;;;;;;;5.65;4.63;;;;;;;;;;5016795;28;20188;-49
2021/11/15 09:09:18;;;;;;;5.43;4.47;;;;;;;;;;5016835;28;20271;-49
2021/11/15 09:11:48;;;;;;;5.90;4.53;;;;;;;;;;5016779;28;20256;-48
2021/11/15 09:14:15;;;;;;;5.57;4.53;;;;;;;;;;5015672;28;20227;-50
2021/11/15 09:16:42;;;;;;;5.82;4.70;;;;;;;;;;5026369;28;20188;-48
2021/11/15 09:19:09;;;;;;;6.30;4.78;;;;;;;;;;5036368;28;20804;-49
2021/11/15 09:21:35;;;;;;;6.10;4.60;;;;;;;;;;5036251;28;20179;-50
2021/11/15 09:24:01;;;;;;;5.65;4.50;;;;;;;;;;5035604;28;20196;-50
2021/11/15 09:26:27;;;;;;;5.35;4.55;;;;;;;;;;5036082;28;20172;-50
2021/11/15 09:28:57;;;;;;;7.10;4.55;;;;;;;;;;5035522;28;20180;-50
2021/11/15 09:31:24;;;;;;;5.45;4.20;;;;;;;;;;5036219;28;20247;-49
2021/11/15 09:33:50;;;;;;;5.75;4.63;;;;;;;;;;5033916;28;20194;-49
2021/11/15 09:36:22;;;;;;;5.85;4.72;;;;;;;;;;5035670;28;20172;-49
2021/11/15 09:38:48;;;;;;;6.68;4.85;;;;;;;;;;5034812;28;20226;-48
2021/11/15 09:41:14;;;;;;;5.82;4.60;;;;;;;;;;5035156;28;20187;-50
2021/11/15 09:43:40;;;;;;;5.82;4.45;;;;;;;;;;5034379;28;20227;-49
2021/11/15 09:46:07;;;;;;;6.82;4.38;;;;;;;;;;5033826;28;20555;-48
2021/11/15 09:48:34;;;;;;;6.00;4.57;;;;;;;;;;5034778;28;20192;-49
2021/11/15 09:51:01;;;;;;;6.55;4.40;;;;;;;;;;5031676;28;20238;-48
2021/11/15 09:53:28;;;;;;;5.80;4.70;;;;;;;;;;5033930;28;20230;-49
2021/11/15 09:55:55;;;;;;;5.63;4.53;;;;;;;;;;5034961;28;20480;-50
2021/11/15 09:58:21;;;;;;;6.55;4.82;;;;;;;;;;5035418;28;20172;-49
2021/11/15 10:00:47;;;;;;;5.07;4.50;;;;;;;;;;5035560;28;20179;-50
2021/11/15 10:03:13;;;;;;;5.63;4.53;;;;;;;;;;5034842;28;20203;-48
2021/11/15 10:05:39;;;;;;;5.32;4.40;;;;;;;;;;5033664;28;20199;-50
2021/11/15 10:08:09;;;;;;;6.20;5.32;;;;;;;;;;5035421;28;20201;-50
2021/11/15 10:10:39;;;;;;;5.90;4.05;;;;;;;;;;5034910;28;20180;-50
2021/11/15 10:13:09;;;;;;;6.57;4.97;;;;;;;;;;5034806;28;20156;-49
2021/11/15 10:15:44;;;;;;;5.72;4.47;;;;;;;;;;5035103;28;20182;-48
2021/11/15 10:18:12;;;;;;;5.13;4.18;;;;;;;;;;5035055;28;20183;-49
2021/11/15 10:20:49;;;;;;;6.25;4.57;;;;;;;;;;5035275;28;20263;-49
2021/11/15 10:23:35;;;;;;;7.20;5.18;;;;;;;;;;5025928;28;20200;-48
2021/11/15 10:26:07;;;;;;;6.45;4.80;;;;;;;;;;5014907;28;20183;-48
2021/11/15 10:28:34;;;;;;;5.32;4.60;;;;;;;;;;5029396;28;20231;-49
2021/11/15 10:31:00;;;;;;;5.55;4.57;;;;;;;;;;5034892;28;20302;-50
2021/11/15 10:33:46;;;;;;;5.60;4.63;;;;;;;;;;5034279;28;20183;-49
2021/11/15 10:36:12;;;;;;;5.20;4.57;;;;;;;;;;5034625;28;20190;-49
2021/11/15 10:38:43;;;;;;;5.93;4.80;;;;;;;;;;5034645;28;20184;-49
2021/11/15 10:41:16;;;;;;;5.60;4.72;;;;;;;;;;5016351;28;20208;-48
2021/11/15 10:43:42;;;;;;;5.78;4.35;;;;;;;;;;5014348;28;20193;-49
2021/11/15 10:46:08;;;;;;;5.75;4.55;;;;;;;;;;5026947;28;20269;-50
2021/11/15 10:48:45;;;;;;;5.15;4.38;;;;;;;;;;5034490;28;20179;-49
2021/11/15 10:51:14;;;;;;;6.53;4.97;;;;;;;;;;5034850;28;20168;-50
2021/11/15 10:53:54;;;;;;;5.60;4.97;;;;;;;;;;5033991;28;20221;-50
2021/11/15 10:56:30;;;;;;;5.00;4.20;;;;;;;;;;5029607;28;20172;-48
2021/11/15 10:58:56;;;;;;;6.88;4.68;;;;;;;;;;5014824;28;20164;-49
2021/11/15 11:01:29;;;;;;;4.55;4.10;;;;;;;;;;5014820;28;20251;-49
2021/11/15 11:04:11;;;;;;;6.07;4.60;;;;;;;;;;5013548;28;20204;-49
2021/11/15 11:06:56;;;;;;;5.35;4.55;;;;;;;;;;5030085;28;20182;-48
2021/11/15 11:09:38;;;;;;;6.22;4.90;;;;;;;;;;5033666;28;20298;-49
2021/11/15 11:12:13;;;;;;;5.38;4.50;;;;;;;;;;5033533;28;20178;-49
2021/11/15 11:14:40;;;;;;;5.25;4.40;;;;;;;;;;5031830;28;20221;-49
2021/11/15 11:17:07;;;;;;;5.78;4.80;;;;;;;;;;5033025;28;20210;-51
2021/11/15 11:19:36;;;;;;;4.82;4.32;;;;;;;;;;5033326;28;20195;-50
2021/11/15 11:22:23;;;;;;;5.22;4.68;;;;;;;;;;5033466;28;20197;-49
2021/11/15 11:27:32;;;;;;;5.78;4.47;;;;;;;;;;5033129;28;20215;-49
2021/11/15 11:29:59;;;;;;;6.20;4.50;;;;;;;;;;5024367;28;20234;-49
2021/11/15 11:32:26;;;;;;;5.80;4.35;;;;;;;;;;5013570;28;20160;-50
2021/11/15 11:34:56;;;;;;;6.90;4.72;;;;;;;;;;5014718;28;20168;-50
2021/11/15 11:37:25;;;;;;;5.78;4.72;;;;;;;;;;5033232;28;20186;-50
2021/11/15 11:39:52;;;;;;;5.82;4.28;;;;;;;;;;5033139;28;20254;-50
2021/11/15 11:42:18;;;;;;;5.63;4.55;;;;;;;;;;5032802;28;20251;-49
2021/11/15 11:44:44;;;;;;;6.03;4.82;;;;;;;;;;5032163;28;20203;-50
2021/11/15 11:47:12;;;;;;;6.60;4.97;;;;;;;;;;5025977;28;20216;-50
2021/11/15 11:49:39;;;;;;;5.60;4.43;;;;;;;;;;5032887;28;20520;-49
2021/11/15 11:52:07;;;;;;;6.18;4.55;;;;;;;;;;5031888;28;20210;-50
2021/11/15 11:54:36;;;;;;;6.40;4.75;;;;;;;;;;5032006;28;20184;-51
2021/11/15 11:57:05;;;;;;;5.00;4.35;;;;;;;;;;5032427;28;20191;-49
2021/11/15 11:59:32;;;;;;;5.75;4.93;;;;;;;;;;5032821;28;20168;-49
2021/11/15 12:02:10;;;;;;;4.97;4.28;;;;;;;;;;5033084;28;20172;-51
2021/11/15 12:04:47;;;;;;;5.00;4.43;;;;;;;;;;4990306;28;1085372;-49
2021/11/15 12:07:23;;;;;;;9.95;5.10;;;;;;;;;;5033187;28;20168;-50
2021/11/15 12:09:49;;;;;;;6.47;5.10;;;;;;;;;;5033378;28;20168;-50
2021/11/15 12:12:15;;;;;;;5.00;4.40;;;;;;;;;;5033558;28;20180;-51
2021/11/15 12:14:42;;;;;;;5.25;4.15;;;;;;;;;;5032318;28;20222;-50
2021/11/15 12:17:10;;;;;;;5.40;4.43;;;;;;;;;;5033176;28;20179;-49
2021/11/15 12:20:03;;;;;;;5.25;4.50;;;;;;;;;;5031646;28;20240;-49
2021/11/15 12:22:39;;;;;;;5.68;4.78;;;;;;;;;;5013449;28;20188;-50
2021/11/15 12:25:05;;;;;;;5.65;4.97;;;;;;;;;;5012787;28;20222;-50
2021/11/15 12:27:37;;;;;;;5.35;4.40;;;;;;;;;;5032042;28;20575;-49
2021/11/15 12:30:10;;;;;;;5.63;4.70;;;;;;;;;;5033062;28;20462;-50
2021/11/15 12:32:36;;;;;;;6.28;4.68;;;;;;;;;;5033485;28;20327;-49
2021/11/15 12:35:02;;;;;;;5.28;4.78;;;;;;;;;;5032861;28;20548;-49
2021/11/15 12:37:39;;;;;;;6.88;4.82;;;;;;;;;;5021489;28;20879;-49
2021/11/15 12:40:06;;;;;;;6.10;4.82;;;;;;;;;;5013546;28;20302;-49
2021/11/15 12:42:33;;;;;;;5.28;4.45;;;;;;;;;;5026474;28;20629;-49
2021/11/15 12:45:11;;;;;;;4.95;4.28;;;;;;;;;;5032492;28;20215;-50
2021/11/15 12:47:40;;;;;;;5.80;4.57;;;;;;;;;;5032806;28;20184;-49
2021/11/15 12:50:11;;;;;;;4.80;4.30;;;;;;;;;;5033401;28;20487;-51
2021/11/15 12:52:37;;;;;;;5.07;4.55;;;;;;;;;;5031679;28;20462;-49
2021/11/15 12:55:09;;;;;;;4.75;4.15;;;;;;;;;;5031985;28;20216;-49
2021/11/15 12:57:37;;;;;;;5.32;4.70;;;;;;;;;;5032768;28;20160;-51
2021/11/15 13:00:33;;;;;;;6.93;5.10;;;;;;;;;;5033052;28;20172;-49
2021/11/15 13:03:00;;;;;;;5.75;4.38;;;;;;;;;;5030746;28;20478;-50
2021/11/15 13:05:27;;;;;;;5.43;4.53;;;;;;;;;;5035920;28;20255;-50
2021/11/15 13:07:53;;;;;;;6.55;5.13;;;;;;;;;;5036081;28;20195;-49
2021/11/15 13:10:20;;;;;;;5.32;4.65;;;;;;;;;;5034809;28;20180;-50
2021/11/15 13:12:46;;;;;;;6.15;5.18;;;;;;;;;;5036305;28;20195;-49
2021/11/15 13:15:13;;;;;;;5.97;4.47;;;;;;;;;;5035971;28;20183;-49
2021/11/15 13:17:40;;;;;;;6.10;4.88;;;;;;;;;;5035698;28;20668;-50
2021/11/15 13:20:08;;;;;;;5.85;4.93;;;;;;;;;;5036433;28;20200;-49
2021/11/15 13:22:34;;;;;;;5.80;4.50;;;;;;;;;;5036243;28;20200;-50
2021/11/15 13:25:01;;;;;;;5.10;4.60;;;;;;;;;;5035685;28;20269;-49
2021/11/15 13:27:27;;;;;;;6.05;4.30;;;;;;;;;;5027542;28;20617;-49
2021/11/15 13:29:54;;;;;;;5.63;5.03;;;;;;;;;;5035162;28;20592;-49
2021/11/15 13:32:21;;;;;;;5.60;4.55;;;;;;;;;;5036275;28;20497;-49
2021/11/15 13:34:49;;;;;;;5.18;4.60;;;;;;;;;;5035351;28;20168;-49
2021/11/15 13:37:15;;;;;;;6.60;5.35;;;;;;;;;;5036042;28;20196;-51
2021/11/15 13:39:45;;;;;;;6.85;4.70;;;;;;;;;;5035226;28;20230;-49
2021/11/15 13:42:11;;;;;;;5.45;4.70;;;;;;;;;;5035705;28;20233;-49
2021/11/15 13:44:38;;;;;;;5.68;4.75;;;;;;;;;;5020026;28;20215;-49
2021/11/15 13:47:04;;;;;;;6.05;4.93;;;;;;;;;;5035267;28;20188;-49
2021/11/15 13:49:32;;;;;;;5.53;4.65;;;;;;;;;;5035783;28;20218;-49
2021/11/15 13:51:58;;;;;;;5.22;4.72;;;;;;;;;;5036018;28;20233;-49
2021/11/15 13:54:24;;;;;;;5.45;4.55;;;;;;;;;;5035310;28;20184;-50
2021/11/15 13:56:50;;;;;;;5.53;4.60;;;;;;;;;;5035492;28;20190;-49
2021/11/15 13:59:16;;;;;;;5.22;4.72;;;;;;;;;;5035070;28;20199;-49
2021/11/15 14:01:43;;;;;;;5.80;4.80;;;;;;;;;;5033731;28;20188;-50
2021/11/15 14:04:09;;;;;;;6.00;5.40;;;;;;;;;;5034729;28;20349;-51
2021/11/15 14:06:36;;;;;;;5.50;4.88;;;;;;;;;;5035319;28;20203;-51
2021/11/15 14:09:02;;;;;;;5.55;4.72;;;;;;;;;;5035561;28;20183;-51
2021/11/15 14:11:29;;;;;;;5.15;4.65;;;;;;;;;;5035493;28;20183;-51
2021/11/15 14:13:56;;;;;;;5.78;5.15;;;;;;;;;;5032819;28;20183;-49
2021/11/15 14:16:22;;;;;;;5.38;4.80;;;;;;;;;;5033397;28;20219;-49
2021/11/15 14:18:48;;;;;;;6.03;5.00;;;;;;;;;;5033946;28;20563;-50
2021/11/15 14:21:14;;;;;;;5.75;4.75;;;;;;;;;;5033513;28;20190;-50
2021/11/15 14:23:40;;;;;;;5.82;4.82;;;;;;;;;;5034466;28;20277;-51
2021/11/15 14:26:07;;;;;;;6.68;5.03;;;;;;;;;;5035003;28;20183;-49
2021/11/15 14:28:33;;;;;;;5.80;5.05;;;;;;;;;;5034729;28;20218;-51
2021/11/15 14:30:59;;;;;;;6.55;5.10;;;;;;;;;;5034446;28;20215;-50
2021/11/15 14:33:25;;;;;;;6.47;4.53;;;;;;;;;;5017016;28;20191;-49
2021/11/15 14:35:53;;;;;;;6.55;5.03;;;;;;;;;;5025483;28;20187;-51
2021/11/15 14:38:19;;;;;;;5.82;5.05;;;;;;;;;;5034779;28;20215;-49
2021/11/15 14:40:45;;;;;;;8.75;5.47;;;;;;;;;;5034840;28;20625;-49
2021/11/15 14:43:11;;;;;;;6.80;5.22;;;;;;;;;;5034321;28;20180;-50
2021/11/15 14:45:38;;;;;;;6.28;5.22;;;;;;;;;;5033598;28;20587;-49
2021/11/15 14:48:04;;;;;;;6.85;5.47;;;;;;;;;;5034059;28;20216;-49